sensor_id;sensor_type;location;lat;lon;timestamp;temperature;humidity
24860;DHT22;12936;52.006;4.350;2023-07-24T00:00:06;20.40;99.90
24860;DHT22;12936;52.006;4.350;2023-07-24T00:02:35;20.40;99.90
24860;DHT22;12936;52.006;4.350;2023-07-24T00:05:03;20.40;99.90
24860;DHT22;12936;52.006;4.350;2023-07-24T00:07:31;20.40;99.90
24860;DHT22;12936;52.006;4.350;2023-07-24T00:10:00;20.40;99.90
24860;DHT22;12936;52.006;4.350;2023-07-24T00:12:30;20.40;99.90
24860;DHT22;12936;52.006;4.350;2023-07-24T00:15:01;20.50;99.90
24860;DHT22;12936;52.006;4.350;2023-07-24T00:17:29;20.40;99.90
24860;DHT22;12936;52.006;4.350;2023-07-24T00:19:59;20.40;99.90
24860;DHT22;12936;52.006;4.350;2023-07-24T00:22:27;20.40;99.90
24860;DHT22;12936;52.006;4.350;2023-07-24T00:24:57;20.40;99.90
24860;DHT22;12936;52.006;4.350;2023-07-24T00:27:25;20.40;99.90
24860;DHT22;12936;52.006;4.350;2023-07-24T00:29:58;20.40;99.90
24860;DHT22;12936;52.006;4.350;2023-07-24T00:32:26;20.40;99.90
24860;DHT22;12936;52.006;4.350;2023-07-24T00:34:54;20.40;99.90
24860;DHT22;12936;52.006;4.350;2023-07-24T00:37:22;20.40;99.90
24860;DHT22;12936;52.006;4.350;2023-07-24T00:39:50;20.40;99.90
24860;DHT22;12936;52.006;4.350;2023-07-24T00:42:21;20.40;99.90
24860;DHT22;12936;52.006;4.350;2023-07-24T00:44:49;20.40;99.90
24860;DHT22;12936;52.006;4.350;2023-07-24T00:47:19;20.30;99.90
24860;DHT22;12936;52.006;4.350;2023-07-24T00:49:50;20.30;99.90
24860;DHT22;12936;52.006;4.350;2023-07-24T00:52:18;20.30;99.90
24860;DHT22;12936;52.006;4.350;2023-07-24T00:54:48;20.30;99.90
24860;DHT22;12936;52.006;4.350;2023-07-24T00:57:16;20.30;99.90
24860;DHT22;12936;52.006;4.350;2023-07-24T00:59:45;20.30;99.90
24860;DHT22;12936;52.006;4.350;2023-07-24T01:02:13;20.30;99.90
24860;DHT22;12936;52.006;4.350;2023-07-24T01:04:45;20.20;99.90
24860;DHT22;12936;52.006;4.350;2023-07-24T01:07:13;20.20;99.90
24860;DHT22;12936;52.006;4.350;2023-07-24T01:09:41;20.20;99.90
24860;DHT22;12936;52.006;4.350;2023-07-24T01:12:15;20.20;99.90
24860;DHT22;12936;52.006;4.350;2023-07-24T01:14:49;20.10;99.90
24860;DHT22;12936;52.006;4.350;2023-07-24T01:17:22;20.10;99.90
24860;DHT22;12936;52.006;4.350;2023-07-24T01:19:57;20.10;99.90
24860;DHT22;12936;52.006;4.350;2023-07-24T01:22:39;20.10;99.90
24860;DHT22;12936;52.006;4.350;2023-07-24T01:25:11;20.00;99.90
24860;DHT22;12936;52.006;4.350;2023-07-24T01:27:46;20.00;99.90
24860;DHT22;12936;52.006;4.350;2023-07-24T01:30:17;20.00;99.90
24860;DHT22;12936;52.006;4.350;2023-07-24T01:32:46;20.00;99.90
24860;DHT22;12936;52.006;4.350;2023-07-24T01:35:14;20.00;99.90
24860;DHT22;12936;52.006;4.350;2023-07-24T01:37:43;20.00;99.90
24860;DHT22;12936;52.006;4.350;2023-07-24T01:40:13;20.00;99.90
24860;DHT22;12936;52.006;4.350;2023-07-24T01:42:41;20.00;99.90
24860;DHT22;12936;52.006;4.350;2023-07-24T01:45:11;20.00;99.90
24860;DHT22;12936;52.006;4.350;2023-07-24T01:47:41;20.00;99.90
24860;DHT22;12936;52.006;4.350;2023-07-24T01:50:10;20.00;99.90
24860;DHT22;12936;52.006;4.350;2023-07-24T01:52:38;20.00;99.90
24860;DHT22;12936;52.006;4.350;2023-07-24T01:55:07;20.00;99.90
24860;DHT22;12936;52.006;4.350;2023-07-24T01:57:36;20.00;99.90
24860;DHT22;12936;52.006;4.350;2023-07-24T02:00:07;20.00;99.90
24860;DHT22;12936;52.006;4.350;2023-07-24T02:02:37;20.00;99.90
24860;DHT22;12936;52.006;4.350;2023-07-24T02:05:05;20.00;99.90
24860;DHT22;12936;52.006;4.350;2023-07-24T02:07:36;20.00;99.90
24860;DHT22;12936;52.006;4.350;2023-07-24T02:10:05;20.00;99.90
24860;DHT22;12936;52.006;4.350;2023-07-24T02:12:36;19.90;99.90
24860;DHT22;12936;52.006;4.350;2023-07-24T02:15:05;19.90;99.90
24860;DHT22;12936;52.006;4.350;2023-07-24T02:17:33;19.90;99.90
24860;DHT22;12936;52.006;4.350;2023-07-24T02:20:03;19.90;99.90
24860;DHT22;12936;52.006;4.350;2023-07-24T02:22:31;19.90;99.90
24860;DHT22;12936;52.006;4.350;2023-07-24T02:24:59;19.90;99.90
24860;DHT22;12936;52.006;4.350;2023-07-24T02:27:29;20.00;99.90
24860;DHT22;12936;52.006;4.350;2023-07-24T02:29:58;19.90;99.90
24860;DHT22;12936;52.006;4.350;2023-07-24T02:32:26;19.90;99.90
24860;DHT22;12936;52.006;4.350;2023-07-24T02:34:54;19.90;99.90
24860;DHT22;12936;52.006;4.350;2023-07-24T02:37:24;19.90;99.90
24860;DHT22;12936;52.006;4.350;2023-07-24T02:39:52;19.90;99.90
24860;DHT22;12936;52.006;4.350;2023-07-24T02:42:20;19.90;99.90
24860;DHT22;12936;52.006;4.350;2023-07-24T02:44:48;19.90;99.90
24860;DHT22;12936;52.006;4.350;2023-07-24T02:47:16;19.80;99.90
24860;DHT22;12936;52.006;4.350;2023-07-24T02:49:45;19.80;99.90
24860;DHT22;12936;52.006;4.350;2023-07-24T02:52:15;19.80;99.90
24860;DHT22;12936;52.006;4.350;2023-07-24T02:54:45;19.80;99.90
24860;DHT22;12936;52.006;4.350;2023-07-24T02:57:15;19.80;99.90
24860;DHT22;12936;52.006;4.350;2023-07-24T02:59:44;19.90;99.90
24860;DHT22;12936;52.006;4.350;2023-07-24T03:02:13;19.90;99.90
24860;DHT22;12936;52.006;4.350;2023-07-24T03:04:42;19.90;99.90
24860;DHT22;12936;52.006;4.350;2023-07-24T03:07:10;19.90;99.90
24860;DHT22;12936;52.006;4.350;2023-07-24T03:09:38;19.90;99.90
24860;DHT22;12936;52.006;4.350;2023-07-24T03:12:08;19.90;99.90
24860;DHT22;12936;52.006;4.350;2023-07-24T03:14:37;19.90;99.90
24860;DHT22;12936;52.006;4.350;2023-07-24T03:17:06;19.90;99.90
24860;DHT22;12936;52.006;4.350;2023-07-24T03:19:34;19.90;99.90
24860;DHT22;12936;52.006;4.350;2023-07-24T03:22:02;19.90;99.90
24860;DHT22;12936;52.006;4.350;2023-07-24T03:24:30;19.90;99.90
24860;DHT22;12936;52.006;4.350;2023-07-24T03:27:03;19.90;99.90
24860;DHT22;12936;52.006;4.350;2023-07-24T03:29:33;19.90;99.90
24860;DHT22;12936;52.006;4.350;2023-07-24T03:32:01;19.90;99.90
24860;DHT22;12936;52.006;4.350;2023-07-24T03:34:30;19.90;99.90
24860;DHT22;12936;52.006;4.350;2023-07-24T03:36:58;19.90;99.90
24860;DHT22;12936;52.006;4.350;2023-07-24T03:39:29;19.90;99.90
24860;DHT22;12936;52.006;4.350;2023-07-24T03:41:58;19.90;99.90
24860;DHT22;12936;52.006;4.350;2023-07-24T03:44:30;19.90;99.90
24860;DHT22;12936;52.006;4.350;2023-07-24T03:46:59;19.90;99.90
24860;DHT22;12936;52.006;4.350;2023-07-24T03:49:27;19.90;99.90
24860;DHT22;12936;52.006;4.350;2023-07-24T03:51:59;19.90;99.90
24860;DHT22;12936;52.006;4.350;2023-07-24T03:54:28;19.90;99.90
24860;DHT22;12936;52.006;4.350;2023-07-24T03:56:57;19.90;99.90
24860;DHT22;12936;52.006;4.350;2023-07-24T03:59:25;19.90;99.90
24860;DHT22;12936;52.006;4.350;2023-07-24T04:01:53;19.90;99.90
24860;DHT22;12936;52.006;4.350;2023-07-24T04:04:23;19.90;99.90
24860;DHT22;12936;52.006;4.350;2023-07-24T04:06:51;19.90;99.90
24860;DHT22;12936;52.006;4.350;2023-07-24T04:09:23;19.90;99.90
24860;DHT22;12936;52.006;4.350;2023-07-24T04:11:51;19.90;99.90
24860;DHT22;12936;52.006;4.350;2023-07-24T04:14:20;19.80;99.90
24860;DHT22;12936;52.006;4.350;2023-07-24T04:16:48;19.80;99.90
24860;DHT22;12936;52.006;4.350;2023-07-24T04:19:18;19.80;99.90
24860;DHT22;12936;52.006;4.350;2023-07-24T04:21:48;19.80;99.90
24860;DHT22;12936;52.006;4.350;2023-07-24T04:24:17;19.80;99.90
24860;DHT22;12936;52.006;4.350;2023-07-24T04:26:46;19.80;99.90
24860;DHT22;12936;52.006;4.350;2023-07-24T04:29:14;19.80;99.90
24860;DHT22;12936;52.006;4.350;2023-07-24T04:31:44;19.80;99.90
24860;DHT22;12936;52.006;4.350;2023-07-24T04:34:12;19.80;99.90
24860;DHT22;12936;52.006;4.350;2023-07-24T04:36:43;19.80;99.90
24860;DHT22;12936;52.006;4.350;2023-07-24T04:39:12;19.80;99.90
24860;DHT22;12936;52.006;4.350;2023-07-24T04:41:41;19.80;99.90
24860;DHT22;12936;52.006;4.350;2023-07-24T04:44:10;19.80;99.90
24860;DHT22;12936;52.006;4.350;2023-07-24T04:46:41;19.80;99.90
24860;DHT22;12936;52.006;4.350;2023-07-24T04:49:09;19.80;99.90
24860;DHT22;12936;52.006;4.350;2023-07-24T04:51:37;19.80;99.90
24860;DHT22;12936;52.006;4.350;2023-07-24T04:54:05;19.80;99.90
24860;DHT22;12936;52.006;4.350;2023-07-24T04:56:37;19.80;99.90
24860;DHT22;12936;52.006;4.350;2023-07-24T04:59:08;19.80;99.90
24860;DHT22;12936;52.006;4.350;2023-07-24T05:01:37;19.80;99.90
24860;DHT22;12936;52.006;4.350;2023-07-24T05:04:05;19.80;99.90
24860;DHT22;12936;52.006;4.350;2023-07-24T05:06:34;19.80;99.90
24860;DHT22;12936;52.006;4.350;2023-07-24T05:09:05;19.80;99.90
24860;DHT22;12936;52.006;4.350;2023-07-24T05:11:34;19.80;99.90
24860;DHT22;12936;52.006;4.350;2023-07-24T05:14:04;19.80;99.90
24860;DHT22;12936;52.006;4.350;2023-07-24T05:16:32;19.80;99.90
24860;DHT22;12936;52.006;4.350;2023-07-24T05:19:01;19.80;99.90
24860;DHT22;12936;52.006;4.350;2023-07-24T05:21:29;19.80;99.90
24860;DHT22;12936;52.006;4.350;2023-07-24T05:27:38;19.80;99.90
24860;DHT22;12936;52.006;4.350;2023-07-24T05:30:13;19.80;99.90
24860;DHT22;12936;52.006;4.350;2023-07-24T05:32:42;19.80;99.90
24860;DHT22;12936;52.006;4.350;2023-07-24T05:35:10;19.80;99.90
24860;DHT22;12936;52.006;4.350;2023-07-24T05:37:38;19.80;99.90
24860;DHT22;12936;52.006;4.350;2023-07-24T05:40:09;19.80;99.90
24860;DHT22;12936;52.006;4.350;2023-07-24T05:42:40;19.80;99.90
24860;DHT22;12936;52.006;4.350;2023-07-24T05:45:13;19.80;99.90
24860;DHT22;12936;52.006;4.350;2023-07-24T05:47:41;19.80;99.90
24860;DHT22;12936;52.006;4.350;2023-07-24T05:50:10;19.90;99.90
24860;DHT22;12936;52.006;4.350;2023-07-24T05:52:40;19.90;99.90
24860;DHT22;12936;52.006;4.350;2023-07-24T05:55:09;19.80;99.90
24860;DHT22;12936;52.006;4.350;2023-07-24T05:57:37;19.80;99.90
24860;DHT22;12936;52.006;4.350;2023-07-24T06:00:08;19.80;99.90
24860;DHT22;12936;52.006;4.350;2023-07-24T06:02:41;19.80;99.90
24860;DHT22;12936;52.006;4.350;2023-07-24T06:05:10;19.80;99.90
24860;DHT22;12936;52.006;4.350;2023-07-24T06:07:38;19.70;99.90
24860;DHT22;12936;52.006;4.350;2023-07-24T06:10:09;19.70;99.90
24860;DHT22;12936;52.006;4.350;2023-07-24T06:12:39;19.80;99.90
24860;DHT22;12936;52.006;4.350;2023-07-24T06:15:08;19.80;99.90
24860;DHT22;12936;52.006;4.350;2023-07-24T06:17:38;19.80;99.90
24860;DHT22;12936;52.006;4.350;2023-07-24T06:20:08;19.80;99.90
24860;DHT22;12936;52.006;4.350;2023-07-24T06:22:39;19.80;99.90
24860;DHT22;12936;52.006;4.350;2023-07-24T06:25:09;19.80;99.90
24860;DHT22;12936;52.006;4.350;2023-07-24T06:27:37;19.80;99.90
24860;DHT22;12936;52.006;4.350;2023-07-24T06:30:09;19.80;99.90
24860;DHT22;12936;52.006;4.350;2023-07-24T06:32:42;19.80;99.90
24860;DHT22;12936;52.006;4.350;2023-07-24T06:35:12;19.90;99.90
24860;DHT22;12936;52.006;4.350;2023-07-24T06:37:40;19.90;99.90
24860;DHT22;12936;52.006;4.350;2023-07-24T06:40:09;19.90;99.90
24860;DHT22;12936;52.006;4.350;2023-07-24T06:42:42;20.00;99.90
24860;DHT22;12936;52.006;4.350;2023-07-24T06:45:10;20.00;99.90
24860;DHT22;12936;52.006;4.350;2023-07-24T06:47:38;20.00;99.90
24860;DHT22;12936;52.006;4.350;2023-07-24T06:50:07;20.00;99.90
24860;DHT22;12936;52.006;4.350;2023-07-24T06:52:41;20.10;99.90
24860;DHT22;12936;52.006;4.350;2023-07-24T06:55:30;20.10;99.90
24860;DHT22;12936;52.006;4.350;2023-07-24T06:57:59;20.10;99.90
24860;DHT22;12936;52.006;4.350;2023-07-24T07:00:27;20.10;99.90
24860;DHT22;12936;52.006;4.350;2023-07-24T07:02:56;20.20;99.90
24860;DHT22;12936;52.006;4.350;2023-07-24T07:05:25;20.10;99.90
24860;DHT22;12936;52.006;4.350;2023-07-24T07:08:00;20.10;99.90
24860;DHT22;12936;52.006;4.350;2023-07-24T07:10:31;20.10;99.90
24860;DHT22;12936;52.006;4.350;2023-07-24T07:12:59;20.10;99.90
24860;DHT22;12936;52.006;4.350;2023-07-24T07:15:29;20.10;99.90
24860;DHT22;12936;52.006;4.350;2023-07-24T07:17:57;20.10;99.90
24860;DHT22;12936;52.006;4.350;2023-07-24T07:20:46;20.20;99.90
24860;DHT22;12936;52.006;4.350;2023-07-24T07:23:16;20.20;99.90
24860;DHT22;12936;52.006;4.350;2023-07-24T07:25:44;20.20;99.90
24860;DHT22;12936;52.006;4.350;2023-07-24T07:28:13;20.20;99.90
24860;DHT22;12936;52.006;4.350;2023-07-24T07:30:41;20.20;99.90
24860;DHT22;12936;52.006;4.350;2023-07-24T07:33:11;20.30;99.90
24860;DHT22;12936;52.006;4.350;2023-07-24T07:35:39;20.30;99.90
24860;DHT22;12936;52.006;4.350;2023-07-24T07:38:07;20.30;99.90
24860;DHT22;12936;52.006;4.350;2023-07-24T07:40:38;20.40;99.90
24860;DHT22;12936;52.006;4.350;2023-07-24T07:43:06;20.50;99.90
24860;DHT22;12936;52.006;4.350;2023-07-24T07:45:35;20.50;99.90
24860;DHT22;12936;52.006;4.350;2023-07-24T07:48:03;20.50;99.90
24860;DHT22;12936;52.006;4.350;2023-07-24T07:50:31;20.50;99.90
24860;DHT22;12936;52.006;4.350;2023-07-24T07:53:00;20.50;99.90
24860;DHT22;12936;52.006;4.350;2023-07-24T07:55:28;20.50;99.90
24860;DHT22;12936;52.006;4.350;2023-07-24T07:57:58;20.50;99.90
24860;DHT22;12936;52.006;4.350;2023-07-24T08:00:26;20.50;99.90
24860;DHT22;12936;52.006;4.350;2023-07-24T08:02:54;20.50;99.90
24860;DHT22;12936;52.006;4.350;2023-07-24T08:05:22;20.50;99.90
24860;DHT22;12936;52.006;4.350;2023-07-24T08:07:51;20.50;99.90
24860;DHT22;12936;52.006;4.350;2023-07-24T08:10:40;20.50;99.90
24860;DHT22;12936;52.006;4.350;2023-07-24T08:13:10;20.50;99.90
24860;DHT22;12936;52.006;4.350;2023-07-24T08:15:38;20.50;99.90
24860;DHT22;12936;52.006;4.350;2023-07-24T08:18:06;20.60;99.90
24860;DHT22;12936;52.006;4.350;2023-07-24T08:20:36;20.60;99.90
24860;DHT22;12936;52.006;4.350;2023-07-24T08:23:06;20.60;99.90
24860;DHT22;12936;52.006;4.350;2023-07-24T08:25:34;20.60;99.90
24860;DHT22;12936;52.006;4.350;2023-07-24T08:28:03;20.60;99.90
24860;DHT22;12936;52.006;4.350;2023-07-24T08:30:34;20.60;99.90
24860;DHT22;12936;52.006;4.350;2023-07-24T08:33:03;20.60;99.90
24860;DHT22;12936;52.006;4.350;2023-07-24T08:35:31;20.60;99.90
24860;DHT22;12936;52.006;4.350;2023-07-24T08:37:59;20.70;99.90
24860;DHT22;12936;52.006;4.350;2023-07-24T08:40:27;20.70;99.90
24860;DHT22;12936;52.006;4.350;2023-07-24T08:42:56;20.70;99.90
24860;DHT22;12936;52.006;4.350;2023-07-24T08:45:28;20.70;99.90
24860;DHT22;12936;52.006;4.350;2023-07-24T08:48:01;20.80;99.90
24860;DHT22;12936;52.006;4.350;2023-07-24T08:50:30;20.80;99.90
24860;DHT22;12936;52.006;4.350;2023-07-24T08:52:59;20.80;99.90
24860;DHT22;12936;52.006;4.350;2023-07-24T08:55:29;20.80;99.90
24860;DHT22;12936;52.006;4.350;2023-07-24T08:57:57;20.80;99.90
24860;DHT22;12936;52.006;4.350;2023-07-24T09:00:27;20.80;99.90
24860;DHT22;12936;52.006;4.350;2023-07-24T09:02:57;20.90;99.90
24860;DHT22;12936;52.006;4.350;2023-07-24T09:05:28;20.90;99.90
24860;DHT22;12936;52.006;4.350;2023-07-24T09:07:58;20.90;99.90
24860;DHT22;12936;52.006;4.350;2023-07-24T09:10:26;20.90;99.90
24860;DHT22;12936;52.006;4.350;2023-07-24T09:12:55;21.00;99.90
24860;DHT22;12936;52.006;4.350;2023-07-24T09:15:23;21.00;99.90
24860;DHT22;12936;52.006;4.350;2023-07-24T09:17:52;21.10;99.90
24860;DHT22;12936;52.006;4.350;2023-07-24T09:20:21;21.10;99.90
24860;DHT22;12936;52.006;4.350;2023-07-24T09:22:54;21.20;99.90
24860;DHT22;12936;52.006;4.350;2023-07-24T09:25:43;21.20;99.90
24860;DHT22;12936;52.006;4.350;2023-07-24T09:28:12;21.30;99.90
24860;DHT22;12936;52.006;4.350;2023-07-24T09:30:41;21.30;99.90
24860;DHT22;12936;52.006;4.350;2023-07-24T09:33:10;21.40;99.90
24860;DHT22;12936;52.006;4.350;2023-07-24T09:35:39;21.40;99.90
24860;DHT22;12936;52.006;4.350;2023-07-24T09:38:10;21.40;99.90
24860;DHT22;12936;52.006;4.350;2023-07-24T09:40:40;21.40;99.90
24860;DHT22;12936;52.006;4.350;2023-07-24T09:43:19;21.40;99.90
24860;DHT22;12936;52.006;4.350;2023-07-24T09:46:06;21.30;99.90
24860;DHT22;12936;52.006;4.350;2023-07-24T09:48:35;21.30;99.90
24860;DHT22;12936;52.006;4.350;2023-07-24T09:51:11;21.30;99.90
24860;DHT22;12936;52.006;4.350;2023-07-24T09:53:46;21.30;99.90
24860;DHT22;12936;52.006;4.350;2023-07-24T09:56:17;21.30;99.90
24860;DHT22;12936;52.006;4.350;2023-07-24T09:58:54;21.30;99.90
24860;DHT22;12936;52.006;4.350;2023-07-24T10:01:25;21.20;99.90
24860;DHT22;12936;52.006;4.350;2023-07-24T10:03:55;21.30;99.90
24860;DHT22;12936;52.006;4.350;2023-07-24T10:06:27;21.30;99.90
24860;DHT22;12936;52.006;4.350;2023-07-24T10:08:59;21.30;99.90
24860;DHT22;12936;52.006;4.350;2023-07-24T10:11:28;21.30;99.90
24860;DHT22;12936;52.006;4.350;2023-07-24T10:13:58;21.40;99.90
24860;DHT22;12936;52.006;4.350;2023-07-24T10:16:26;21.40;99.90
24860;DHT22;12936;52.006;4.350;2023-07-24T10:18:54;21.40;99.90
24860;DHT22;12936;52.006;4.350;2023-07-24T10:21:28;21.50;99.90
24860;DHT22;12936;52.006;4.350;2023-07-24T10:24:05;21.50;99.90
24860;DHT22;12936;52.006;4.350;2023-07-24T10:26:34;21.60;99.90
24860;DHT22;12936;52.006;4.350;2023-07-24T10:29:03;21.60;99.90
24860;DHT22;12936;52.006;4.350;2023-07-24T10:31:35;21.60;99.90
24860;DHT22;12936;52.006;4.350;2023-07-24T10:34:06;21.60;99.90
24860;DHT22;12936;52.006;4.350;2023-07-24T10:36:38;21.60;99.90
24860;DHT22;12936;52.006;4.350;2023-07-24T10:39:15;21.70;99.90
24860;DHT22;12936;52.006;4.350;2023-07-24T10:41:45;21.70;99.90
24860;DHT22;12936;52.006;4.350;2023-07-24T10:44:13;21.80;99.90
24860;DHT22;12936;52.006;4.350;2023-07-24T10:46:41;21.90;99.90
24860;DHT22;12936;52.006;4.350;2023-07-24T10:49:09;21.90;99.90
24860;DHT22;12936;52.006;4.350;2023-07-24T10:51:38;21.90;99.90
24860;DHT22;12936;52.006;4.350;2023-07-24T10:54:06;21.90;99.90
24860;DHT22;12936;52.006;4.350;2023-07-24T10:56:36;21.90;99.90
24860;DHT22;12936;52.006;4.350;2023-07-24T10:59:04;21.90;99.90
24860;DHT22;12936;52.006;4.350;2023-07-24T11:01:42;21.90;99.90
24860;DHT22;12936;52.006;4.350;2023-07-24T11:04:12;21.90;99.90
24860;DHT22;12936;52.006;4.350;2023-07-24T11:06:40;21.90;99.90
24860;DHT22;12936;52.006;4.350;2023-07-24T11:09:10;21.90;99.90
24860;DHT22;12936;52.006;4.350;2023-07-24T11:11:43;21.90;99.90
24860;DHT22;12936;52.006;4.350;2023-07-24T11:14:15;21.90;99.90
24860;DHT22;12936;52.006;4.350;2023-07-24T11:16:48;21.80;99.90
24860;DHT22;12936;52.006;4.350;2023-07-24T11:19:22;21.80;99.90
24860;DHT22;12936;52.006;4.350;2023-07-24T11:21:51;21.80;99.90
24860;DHT22;12936;52.006;4.350;2023-07-24T11:24:19;21.70;99.90
24860;DHT22;12936;52.006;4.350;2023-07-24T11:26:51;21.60;99.90
24860;DHT22;12936;52.006;4.350;2023-07-24T11:29:24;21.60;99.90
24860;DHT22;12936;52.006;4.350;2023-07-24T11:31:55;21.60;99.90
24860;DHT22;12936;52.006;4.350;2023-07-24T11:34:24;21.60;99.90
24860;DHT22;12936;52.006;4.350;2023-07-24T11:36:53;21.60;99.90
24860;DHT22;12936;52.006;4.350;2023-07-24T11:39:22;21.50;99.90
24860;DHT22;12936;52.006;4.350;2023-07-24T11:41:53;21.50;99.90
24860;DHT22;12936;52.006;4.350;2023-07-24T11:44:25;21.50;99.90
24860;DHT22;12936;52.006;4.350;2023-07-24T11:47:00;21.40;99.90
24860;DHT22;12936;52.006;4.350;2023-07-24T11:49:29;21.40;99.90
24860;DHT22;12936;52.006;4.350;2023-07-24T11:52:03;21.40;99.90
24860;DHT22;12936;52.006;4.350;2023-07-24T11:54:34;21.50;99.90
24860;DHT22;12936;52.006;4.350;2023-07-24T11:57:14;21.40;99.90
24860;DHT22;12936;52.006;4.350;2023-07-24T11:59:43;21.40;99.90
24860;DHT22;12936;52.006;4.350;2023-07-24T12:02:11;21.40;99.90
24860;DHT22;12936;52.006;4.350;2023-07-24T12:04:39;21.40;99.90
24860;DHT22;12936;52.006;4.350;2023-07-24T12:07:08;21.40;99.90
24860;DHT22;12936;52.006;4.350;2023-07-24T12:09:36;21.50;99.90
24860;DHT22;12936;52.006;4.350;2023-07-24T12:12:09;21.40;99.90
24860;DHT22;12936;52.006;4.350;2023-07-24T12:14:41;21.40;99.90
24860;DHT22;12936;52.006;4.350;2023-07-24T12:17:10;21.40;99.90
24860;DHT22;12936;52.006;4.350;2023-07-24T12:19:42;21.40;99.90
24860;DHT22;12936;52.006;4.350;2023-07-24T12:22:10;21.40;99.90
24860;DHT22;12936;52.006;4.350;2023-07-24T12:24:38;21.40;99.90
24860;DHT22;12936;52.006;4.350;2023-07-24T12:27:07;21.40;99.90
24860;DHT22;12936;52.006;4.350;2023-07-24T12:29:38;21.40;99.90
24860;DHT22;12936;52.006;4.350;2023-07-24T12:32:06;21.30;99.90
24860;DHT22;12936;52.006;4.350;2023-07-24T12:34:34;21.30;99.90
24860;DHT22;12936;52.006;4.350;2023-07-24T12:37:03;21.20;99.90
24860;DHT22;12936;52.006;4.350;2023-07-24T12:39:31;21.20;99.90
24860;DHT22;12936;52.006;4.350;2023-07-24T12:41:59;21.20;99.90
24860;DHT22;12936;52.006;4.350;2023-07-24T12:44:28;21.10;99.90
24860;DHT22;12936;52.006;4.350;2023-07-24T12:46:56;21.10;99.90
24860;DHT22;12936;52.006;4.350;2023-07-24T12:49:24;21.10;99.90
24860;DHT22;12936;52.006;4.350;2023-07-24T12:51:52;21.10;99.90
24860;DHT22;12936;52.006;4.350;2023-07-24T12:54:20;21.10;99.90
24860;DHT22;12936;52.006;4.350;2023-07-24T12:57:05;21.10;99.90
24860;DHT22;12936;52.006;4.350;2023-07-24T12:59:35;21.00;99.90
24860;DHT22;12936;52.006;4.350;2023-07-24T13:02:03;21.00;99.90
24860;DHT22;12936;52.006;4.350;2023-07-24T13:04:31;21.00;99.90
24860;DHT22;12936;52.006;4.350;2023-07-24T13:06:59;21.00;99.90
24860;DHT22;12936;52.006;4.350;2023-07-24T13:09:28;21.00;99.90
24860;DHT22;12936;52.006;4.350;2023-07-24T13:11:56;20.90;99.90
24860;DHT22;12936;52.006;4.350;2023-07-24T13:14:24;20.90;99.90
24860;DHT22;12936;52.006;4.350;2023-07-24T13:16:54;20.90;99.90
24860;DHT22;12936;52.006;4.350;2023-07-24T13:19:22;20.90;99.90
24860;DHT22;12936;52.006;4.350;2023-07-24T13:21:50;20.80;99.90
24860;DHT22;12936;52.006;4.350;2023-07-24T13:24:18;20.90;99.90
24860;DHT22;12936;52.006;4.350;2023-07-24T13:26:46;20.80;99.90
24860;DHT22;12936;52.006;4.350;2023-07-24T13:29:15;20.90;99.90
24860;DHT22;12936;52.006;4.350;2023-07-24T13:31:43;20.90;99.90
24860;DHT22;12936;52.006;4.350;2023-07-24T13:34:12;20.90;99.90
24860;DHT22;12936;52.006;4.350;2023-07-24T13:36:40;20.90;99.90
24860;DHT22;12936;52.006;4.350;2023-07-24T13:39:10;20.90;99.90
24860;DHT22;12936;52.006;4.350;2023-07-24T13:41:38;20.90;99.90
24860;DHT22;12936;52.006;4.350;2023-07-24T13:44:06;20.80;99.90
24860;DHT22;12936;52.006;4.350;2023-07-24T13:46:34;20.80;99.90
24860;DHT22;12936;52.006;4.350;2023-07-24T13:49:06;20.70;99.90
24860;DHT22;12936;52.006;4.350;2023-07-24T13:51:35;20.70;99.90
24860;DHT22;12936;52.006;4.350;2023-07-24T13:54:03;20.60;99.90
24860;DHT22;12936;52.006;4.350;2023-07-24T13:56:32;20.60;99.90
24860;DHT22;12936;52.006;4.350;2023-07-24T13:59:02;20.60;99.90
24860;DHT22;12936;52.006;4.350;2023-07-24T14:01:30;20.60;99.90
24860;DHT22;12936;52.006;4.350;2023-07-24T14:03:59;20.50;99.90
24860;DHT22;12936;52.006;4.350;2023-07-24T14:06:28;20.50;99.90
24860;DHT22;12936;52.006;4.350;2023-07-24T14:08:57;20.40;99.90
24860;DHT22;12936;52.006;4.350;2023-07-24T14:11:25;20.40;99.90
24860;DHT22;12936;52.006;4.350;2023-07-24T14:13:56;20.40;99.90
24860;DHT22;12936;52.006;4.350;2023-07-24T14:16:24;20.40;99.90
24860;DHT22;12936;52.006;4.350;2023-07-24T14:18:54;20.30;99.90
24860;DHT22;12936;52.006;4.350;2023-07-24T14:21:26;20.30;99.90
24860;DHT22;12936;52.006;4.350;2023-07-24T14:23:56;20.30;99.90
24860;DHT22;12936;52.006;4.350;2023-07-24T14:26:25;20.20;99.90
24860;DHT22;12936;52.006;4.350;2023-07-24T14:28:53;20.10;99.90
24860;DHT22;12936;52.006;4.350;2023-07-24T14:31:23;20.10;99.90
24860;DHT22;12936;52.006;4.350;2023-07-24T14:33:51;20.00;99.90
24860;DHT22;12936;52.006;4.350;2023-07-24T14:36:19;19.90;99.90
24860;DHT22;12936;52.006;4.350;2023-07-24T14:38:47;19.90;99.90
24860;DHT22;12936;52.006;4.350;2023-07-24T14:41:17;19.80;99.90
24860;DHT22;12936;52.006;4.350;2023-07-24T14:43:45;19.80;99.90
24860;DHT22;12936;52.006;4.350;2023-07-24T14:46:13;19.80;99.90
24860;DHT22;12936;52.006;4.350;2023-07-24T14:48:42;19.70;99.90
24860;DHT22;12936;52.006;4.350;2023-07-24T14:51:10;19.70;99.90
24860;DHT22;12936;52.006;4.350;2023-07-24T14:53:38;19.70;99.90
24860;DHT22;12936;52.006;4.350;2023-07-24T14:56:06;19.70;99.90
24860;DHT22;12936;52.006;4.350;2023-07-24T14:58:35;19.70;99.90
24860;DHT22;12936;52.006;4.350;2023-07-24T15:01:03;19.70;99.90
24860;DHT22;12936;52.006;4.350;2023-07-24T15:03:33;19.70;99.90
24860;DHT22;12936;52.006;4.350;2023-07-24T15:06:01;19.70;99.90
24860;DHT22;12936;52.006;4.350;2023-07-24T15:08:31;19.70;99.90
24860;DHT22;12936;52.006;4.350;2023-07-24T15:10:59;19.70;99.90
24860;DHT22;12936;52.006;4.350;2023-07-24T15:13:27;19.70;99.90
24860;DHT22;12936;52.006;4.350;2023-07-24T15:15:57;19.70;99.90
24860;DHT22;12936;52.006;4.350;2023-07-24T15:18:25;19.70;99.90
24860;DHT22;12936;52.006;4.350;2023-07-24T15:20:53;19.70;99.90
24860;DHT22;12936;52.006;4.350;2023-07-24T15:23:21;19.70;99.90
24860;DHT22;12936;52.006;4.350;2023-07-24T15:25:49;19.60;99.90
24860;DHT22;12936;52.006;4.350;2023-07-24T15:28:17;19.60;99.90
24860;DHT22;12936;52.006;4.350;2023-07-24T15:30:45;19.60;99.90
24860;DHT22;12936;52.006;4.350;2023-07-24T15:33:16;19.60;99.90
24860;DHT22;12936;52.006;4.350;2023-07-24T15:35:44;19.60;99.90
24860;DHT22;12936;52.006;4.350;2023-07-24T15:38:12;19.50;99.90
24860;DHT22;12936;52.006;4.350;2023-07-24T15:40:41;19.50;99.90
24860;DHT22;12936;52.006;4.350;2023-07-24T15:43:09;19.50;99.90
24860;DHT22;12936;52.006;4.350;2023-07-24T15:45:37;19.50;99.90
24860;DHT22;12936;52.006;4.350;2023-07-24T15:48:05;19.50;99.90